createdAt,value
2022-10-11T00:05:00.996Z,3.25
2022-10-11T00:10:15.152Z,3.53
2022-10-11T00:15:26.911Z,3.87
2022-10-11T00:20:40.854Z,3.70
2022-10-11T00:26:01.066Z,3.40
2022-10-11T00:31:16.831Z,3.40
2022-10-11T00:36:28.491Z,3.83
2022-10-11T00:41:31.257Z,4.10
2022-10-11T00:46:34.081Z,4.22
2022-10-11T00:51:51.991Z,3.67
2022-10-11T00:57:12.992Z,3.80
2022-10-11T01:02:27.077Z,3.55
2022-10-11T01:07:40.098Z,3.58
2022-10-11T01:13:11.422Z,3.70
2022-10-11T01:19:01.060Z,3.90
2022-10-11T01:24:24.005Z,4.10
2022-10-11T01:30:17.519Z,4.47
2022-10-11T01:35:37.629Z,4.18
2022-10-11T01:41:19.967Z,4.25
2022-10-11T01:46:35.408Z,3.65
2022-10-11T01:51:53.441Z,3.78
2022-10-11T01:57:42.673Z,4.67
2022-10-11T02:03:19.768Z,4.55
2022-10-11T02:08:41.835Z,4.22
2022-10-11T02:14:12.768Z,3.70
2022-10-11T02:19:29.362Z,8.70
2022-10-11T02:24:45.991Z,3.78
2022-10-11T02:30:01.550Z,3.83
2022-10-11T02:35:17.578Z,3.80
2022-10-11T02:40:42.267Z,3.50
2022-10-11T02:46:03.502Z,3.30
2022-10-11T02:51:18.257Z,3.80
2022-10-11T02:56:31.810Z,3.85
2022-10-11T03:01:45.346Z,4.68
2022-10-11T03:06:58.686Z,3.53
2022-10-11T03:12:12.684Z,3.75
2022-10-11T03:17:42.832Z,3.25
2022-10-11T03:22:56.407Z,3.38
2022-10-11T03:28:08.369Z,3.00
2022-10-11T03:33:22.284Z,3.20
2022-10-11T03:38:37.316Z,3.33
2022-10-11T03:43:52.239Z,3.38
2022-10-11T03:49:07.374Z,3.17
2022-10-11T03:54:22.332Z,2.92
2022-10-11T03:59:37.386Z,3.25
2022-10-11T04:04:52.291Z,3.78
2022-10-11T04:10:06.244Z,3.83
2022-10-11T04:15:18.649Z,3.00
2022-10-11T04:20:32.605Z,3.20
2022-10-11T04:25:46.067Z,3.97
2022-10-11T04:30:58.809Z,3.08
2022-10-11T04:36:12.038Z,2.42
2022-10-11T04:41:25.632Z,2.75
2022-10-11T04:46:37.261Z,3.13
2022-10-11T04:51:51.073Z,2.70
2022-10-11T04:57:06.020Z,2.88
2022-10-11T05:02:21.339Z,2.80
2022-10-11T05:07:35.659Z,3.00
2022-10-11T05:12:49.745Z,3.17
2022-10-11T05:18:04.722Z,3.72
2022-10-11T05:23:19.725Z,2.20
2022-10-11T05:28:34.818Z,2.25
2022-10-11T05:33:47.831Z,2.67
2022-10-11T05:39:00.905Z,2.30
2022-10-11T05:44:14.260Z,2.35
2022-10-11T05:49:28.334Z,2.35
2022-10-11T05:54:43.308Z,2.40
2022-10-11T05:59:56.119Z,3.97
2022-10-11T06:05:10.514Z,2.88
2022-10-11T06:10:25.313Z,2.65
2022-10-11T06:15:41.185Z,2.45
2022-10-11T06:21:08.822Z,2.35
2022-10-11T06:26:36.091Z,3.22
2022-10-11T06:32:07.270Z,2.60
2022-10-11T06:37:38.349Z,2.97
2022-10-11T06:43:09.092Z,2.30
2022-10-11T06:48:21.528Z,3.10
2022-10-11T06:53:53.200Z,3.45
2022-10-11T06:59:05.938Z,3.30
2022-10-11T07:04:36.359Z,3.20
2022-10-11T07:10:16.642Z,3.70
2022-10-11T07:15:45.122Z,6.13
2022-10-11T07:21:16.905Z,3.80
2022-10-11T07:26:49.148Z,3.70
2022-10-11T07:32:18.247Z,4.00
2022-10-11T07:37:30.159Z,3.92
2022-10-11T07:42:41.889Z,4.00
2022-10-11T07:48:09.567Z,3.80
2022-10-11T07:53:54.776Z,4.32
2022-10-11T07:59:22.092Z,4.20
2022-10-11T08:04:49.846Z,3.95
2022-10-11T08:10:20.763Z,3.90
2022-10-11T08:15:51.746Z,4.30
2022-10-11T08:21:20.771Z,4.80
2022-10-11T08:27:04.798Z,5.70
2022-10-11T08:32:17.879Z,5.70
2022-10-11T08:37:29.558Z,6.00
2022-10-11T08:43:06.030Z,5.60
2022-10-11T08:48:46.613Z,6.18
2022-10-11T08:54:48.200Z,5.93
2022-10-11T09:00:20.053Z,5.80
2022-10-11T09:05:35.929Z,6.10
2022-10-11T09:11:14.063Z,6.10
2022-10-11T09:16:36.349Z,6.30
2022-10-11T09:21:56.633Z,6.22
2022-10-11T09:27:10.185Z,6.68
2022-10-11T09:32:21.216Z,7.50
2022-10-11T09:38:06.883Z,6.45
2022-10-11T09:43:09.851Z,7.97
2022-10-11T09:48:17.674Z,8.23
2022-10-11T09:53:22.072Z,8.07
2022-10-11T09:58:36.005Z,8.07
2022-10-11T10:03:43.907Z,8.75
2022-10-11T10:08:48.006Z,9.48
2022-10-11T10:13:54.019Z,8.73
2022-10-11T10:19:02.544Z,8.43
2022-10-11T10:24:30.730Z,7.95
2022-10-11T10:29:33.741Z,9.13
2022-10-11T10:34:39.459Z,8.00
2022-10-11T10:39:50.183Z,7.93
2022-10-11T10:44:58.837Z,8.30
2022-10-11T10:50:27.288Z,7.45
2022-10-11T10:55:46.740Z,7.80
2022-10-11T11:00:52.498Z,8.13
2022-10-11T11:06:03.492Z,7.07
2022-10-11T11:11:44.014Z,7.82
2022-10-11T11:17:06.302Z,8.48
2022-10-11T11:22:21.064Z,7.63
2022-10-11T11:28:06.769Z,7.00
2022-10-11T11:33:33.600Z,8.50
2022-10-11T11:38:51.040Z,8.75
2022-10-11T11:44:48.195Z,9.73
2022-10-11T11:50:04.672Z,9.55
2022-10-11T11:55:10.037Z,8.32
2022-10-11T12:05:26.251Z,9.80
2022-10-11T12:10:55.357Z,12.55
2022-10-11T12:16:04.264Z,13.00
2022-10-11T12:21:17.993Z,10.85
2022-10-11T12:26:30.140Z,8.80
2022-10-11T12:31:35.953Z,8.23
2022-10-11T12:36:40.423Z,8.77
2022-10-11T12:41:53.892Z,10.60
2022-10-11T12:46:59.752Z,11.95
2022-10-11T12:52:05.210Z,11.77
2022-10-11T12:57:35.618Z,11.85
2022-10-11T13:02:43.117Z,12.07
2022-10-11T13:07:47.404Z,12.07
2022-10-11T13:12:50.986Z,12.80
2022-10-11T13:18:02.229Z,11.98
2022-10-11T13:23:04.937Z,8.35
2022-10-11T13:28:09.353Z,8.63
2022-10-11T13:33:24.747Z,9.27
2022-10-11T13:38:33.883Z,9.75
2022-10-11T13:43:37.161Z,8.57
2022-10-11T13:48:41.336Z,7.90
2022-10-11T13:54:02.439Z,7.32
2022-10-11T13:59:05.454Z,7.28
2022-10-11T14:04:15.823Z,7.32
2022-10-11T14:09:22.552Z,7.35
2022-10-11T14:14:41.165Z,7.93
2022-10-11T14:19:45.733Z,7.65
2022-10-11T14:24:49.099Z,7.45
2022-10-11T14:30:19.827Z,7.45
2022-10-11T14:35:17.750Z,6.93
2022-10-11T14:40:25.558Z,7.03
2022-10-11T14:45:28.324Z,7.15
2022-10-11T14:50:31.054Z,7.88
2022-10-11T14:55:36.300Z,8.63
2022-10-11T15:00:39.037Z,8.52
2022-10-11T15:05:41.731Z,7.53
2022-10-11T15:10:44.519Z,7.32
2022-10-11T15:15:47.318Z,8.13
2022-10-11T15:20:51.706Z,8.57
2022-10-11T15:25:54.621Z,7.47
2022-10-11T15:30:58.018Z,7.30
2022-10-11T15:36:00.686Z,8.35
2022-10-11T15:41:03.618Z,7.95
2022-10-11T15:46:07.107Z,9.10
2022-10-11T15:51:10.229Z,8.23
2022-10-11T15:56:19.328Z,8.52
2022-10-11T16:01:22.049Z,7.88
2022-10-11T16:06:24.764Z,7.85
2022-10-11T16:11:27.572Z,8.05
2022-10-11T16:16:30.262Z,8.20
2022-10-11T16:21:33.079Z,9.20
2022-10-11T16:26:35.822Z,9.15
2022-10-11T16:31:38.541Z,9.80
2022-10-11T16:36:41.294Z,10.60
2022-10-11T16:41:44.088Z,9.40
2022-10-11T16:46:50.486Z,9.90
2022-10-11T16:51:55.672Z,10.30
2022-10-11T16:56:59.635Z,10.55
2022-10-11T17:02:02.389Z,10.63
2022-10-11T17:07:12.521Z,10.38
2022-10-11T17:12:17.387Z,10.98
2022-10-11T17:17:20.868Z,11.50
2022-10-11T17:22:23.618Z,11.40
2022-10-11T17:27:26.543Z,11.98
2022-10-11T17:32:29.231Z,11.60
2022-10-11T17:37:31.992Z,12.32
2022-10-11T17:42:34.902Z,13.13
2022-10-11T17:47:37.818Z,14.05
2022-10-11T17:52:40.542Z,12.25
2022-10-11T17:57:43.306Z,10.77
2022-10-11T18:02:46.005Z,11.05
2022-10-11T18:07:53.139Z,11.82
2022-10-11T18:12:55.894Z,10.77
2022-10-11T18:17:59.917Z,11.20
2022-10-11T18:23:02.843Z,11.88
2022-10-11T18:28:05.646Z,12.60
2022-10-11T18:33:08.311Z,13.02
2022-10-11T18:38:10.956Z,13.90
2022-10-11T18:43:13.878Z,14.40
2022-10-11T18:48:16.655Z,14.75
2022-10-11T18:53:19.318Z,14.90
2022-10-11T18:58:22.012Z,15.95
2022-10-11T19:03:24.759Z,14.48
2022-10-11T19:08:28.193Z,15.23
2022-10-11T19:13:30.972Z,14.85
2022-10-11T19:18:33.782Z,15.68
2022-10-11T19:23:41.999Z,18.08
2022-10-11T19:28:45.638Z,17.85
2022-10-11T19:33:49.876Z,20.33
2022-10-11T19:38:57.003Z,20.63
2022-10-11T19:43:59.980Z,20.98
2022-10-11T19:49:03.153Z,21.17
2022-10-11T19:54:08.383Z,20.30
2022-10-11T19:59:12.405Z,20.20
2022-10-11T20:04:33.526Z,18.73
2022-10-11T20:09:37.985Z,18.45
2022-10-11T20:14:40.685Z,18.70
2022-10-11T20:19:43.410Z,18.60
2022-10-11T20:24:46.113Z,17.55
2022-10-11T20:29:49.300Z,16.67
2022-10-11T20:34:52.020Z,16.55
2022-10-11T20:39:54.949Z,14.25
2022-10-11T20:44:57.647Z,13.38
2022-10-11T20:50:00.384Z,14.25
2022-10-11T20:55:04.556Z,12.25
2022-10-11T21:00:08.083Z,12.23
2022-10-11T21:05:11.686Z,13.20
2022-10-11T21:10:14.504Z,12.95
2022-10-11T21:15:17.187Z,12.93
2022-10-11T21:20:19.906Z,13.05
2022-10-11T21:25:23.481Z,13.43
2022-10-11T21:30:26.265Z,13.10
2022-10-11T21:35:30.109Z,13.57
2022-10-11T21:40:32.756Z,12.95
2022-10-11T21:45:38.988Z,13.27
2022-10-11T21:50:42.197Z,12.73
2022-10-11T21:55:44.849Z,13.57
2022-10-11T22:00:47.529Z,14.27
2022-10-11T22:05:50.355Z,14.27
2022-10-11T22:10:57.763Z,13.18
2022-10-11T22:16:04.912Z,13.52
2022-10-11T22:21:14.836Z,14.10
2022-10-11T22:26:19.660Z,13.75
2022-10-11T22:31:23.457Z,13.88
2022-10-11T22:36:27.482Z,13.13
2022-10-11T22:41:30.366Z,13.07
2022-10-11T22:46:33.403Z,12.98
2022-10-11T22:51:36.093Z,12.75
2022-10-11T22:56:38.772Z,12.50
2022-10-11T23:01:41.551Z,12.48
2022-10-11T23:06:44.616Z,11.70
2022-10-11T23:11:47.427Z,11.85
2022-10-11T23:16:53.524Z,12.13
2022-10-11T23:21:56.835Z,12.70
2022-10-11T23:26:59.526Z,12.35
2022-10-11T23:32:02.379Z,12.80
2022-10-11T23:37:05.612Z,12.27
2022-10-11T23:42:08.363Z,12.52
2022-10-11T23:47:11.049Z,12.68
2022-10-11T23:52:13.640Z,12.05
2022-10-11T23:57:16.289Z,12.45
